createdAt,value
2022-10-26T00:00:02.353Z,0.00
2022-10-26T00:01:06.409Z,0.00
2022-10-26T00:02:10.261Z,0.00
2022-10-26T00:03:14.046Z,0.00
2022-10-26T00:04:17.851Z,0.00
2022-10-26T00:05:21.742Z,0.00
2022-10-26T00:06:25.950Z,0.00
2022-10-26T00:07:29.917Z,0.00
2022-10-26T00:08:33.850Z,0.00
2022-10-26T00:09:37.647Z,0.00
2022-10-26T00:10:41.215Z,0.43
2022-10-26T00:11:45.241Z,1.43
2022-10-26T00:12:49.125Z,1.29
2022-10-26T00:13:52.834Z,0.57
2022-10-26T00:14:56.834Z,0.00
2022-10-26T00:17:03.510Z,0.00
2022-10-26T00:18:07.014Z,0.00
2022-10-26T00:19:10.690Z,0.00
2022-10-26T00:20:14.383Z,0.00
2022-10-26T00:21:17.807Z,0.00
2022-10-26T00:22:21.408Z,0.00
2022-10-26T00:23:25.047Z,0.00
2022-10-26T00:24:28.848Z,0.00
2022-10-26T00:25:32.549Z,0.00
2022-10-26T00:26:36.244Z,0.00
2022-10-26T00:27:39.831Z,0.00
2022-10-26T00:28:43.308Z,0.00
2022-10-26T00:29:46.911Z,0.00
2022-10-26T00:30:50.703Z,0.86
2022-10-26T00:31:54.499Z,1.14
2022-10-26T00:32:58.090Z,0.00
2022-10-26T00:34:01.786Z,0.00
2022-10-26T00:35:11.893Z,0.00
2022-10-26T00:36:10.014Z,0.00
2022-10-26T00:37:13.673Z,0.00
2022-10-26T00:38:17.495Z,0.00
2022-10-26T00:39:20.928Z,0.00
2022-10-26T00:40:24.455Z,0.00
2022-10-26T00:41:28.154Z,0.00
2022-10-26T00:42:31.607Z,0.00
2022-10-26T00:43:35.130Z,0.00
2022-10-26T00:44:38.508Z,0.00
2022-10-26T00:45:42.190Z,0.00
2022-10-26T00:46:45.630Z,0.43
2022-10-26T00:47:49.394Z,0.57
2022-10-26T00:48:53.268Z,0.00
2022-10-26T00:49:56.785Z,0.00
2022-10-26T00:51:00.789Z,0.00
2022-10-26T00:52:04.360Z,0.00
2022-10-26T00:53:08.581Z,0.00
2022-10-26T00:54:12.589Z,0.00
2022-10-26T00:55:16.374Z,0.13
2022-10-26T00:56:20.049Z,0.00
2022-10-26T00:57:23.869Z,0.00
2022-10-26T00:58:27.457Z,0.00
2022-10-26T00:59:31.056Z,0.43
2022-10-26T01:00:34.542Z,0.57
2022-10-26T01:01:38.467Z,0.00
2022-10-26T01:02:41.827Z,0.00
2022-10-26T01:03:45.772Z,0.00
2022-10-26T01:04:49.822Z,0.00
2022-10-26T01:05:53.188Z,0.00
2022-10-26T01:06:56.911Z,0.00
2022-10-26T01:08:00.599Z,0.00
2022-10-26T01:09:04.286Z,0.00
2022-10-26T01:10:08.195Z,0.00
2022-10-26T01:11:12.098Z,0.00
2022-10-26T01:12:15.682Z,0.00
2022-10-26T01:13:19.168Z,0.00
2022-10-26T01:14:22.560Z,0.00
2022-10-26T01:15:26.285Z,0.00
2022-10-26T01:16:30.147Z,0.00
2022-10-26T01:17:33.647Z,0.00
2022-10-26T01:18:37.336Z,0.00
2022-10-26T01:19:41.031Z,0.00
2022-10-26T01:20:44.734Z,0.00
2022-10-26T01:21:48.207Z,0.00
2022-10-26T01:22:52.213Z,0.00
2022-10-26T01:23:55.771Z,0.00
2022-10-26T01:24:59.389Z,0.00
2022-10-26T01:26:03.189Z,0.00
2022-10-26T01:27:07.064Z,0.00
2022-10-26T01:28:10.680Z,0.00
2022-10-26T01:29:14.073Z,0.00
2022-10-26T01:30:17.969Z,0.00
2022-10-26T01:31:21.779Z,0.00
2022-10-26T01:32:25.869Z,0.00
2022-10-26T01:33:29.872Z,0.00
2022-10-26T01:34:33.770Z,0.00
2022-10-26T01:35:36.870Z,0.00
2022-10-26T01:36:40.215Z,0.00
2022-10-26T01:37:44.031Z,0.00
2022-10-26T01:38:47.823Z,0.00
2022-10-26T01:39:51.721Z,0.00
2022-10-26T01:40:55.546Z,0.00
2022-10-26T01:41:59.758Z,0.00
2022-10-26T01:43:03.623Z,0.00
2022-10-26T01:44:07.426Z,0.00
2022-10-26T01:45:11.423Z,0.00
2022-10-26T01:46:15.505Z,0.00
2022-10-26T01:47:19.323Z,0.00
2022-10-26T01:48:22.607Z,0.00
2022-10-26T01:49:26.191Z,0.00
2022-10-26T01:50:29.888Z,0.00
2022-10-26T01:51:34.092Z,0.00
2022-10-26T01:52:37.790Z,0.00
2022-10-26T01:53:41.486Z,0.00
2022-10-26T01:54:45.381Z,0.00
2022-10-26T01:55:49.044Z,0.00
2022-10-26T01:56:52.560Z,0.00
2022-10-26T01:57:56.577Z,0.00
2022-10-26T01:59:00.162Z,0.00
2022-10-26T02:00:03.942Z,0.00
2022-10-26T02:01:07.465Z,0.00
2022-10-26T02:02:10.826Z,0.00
2022-10-26T02:03:14.770Z,0.00
2022-10-26T02:04:18.454Z,0.00
2022-10-26T02:05:22.315Z,0.00
2022-10-26T02:06:26.053Z,0.00
2022-10-26T02:07:29.709Z,0.00
2022-10-26T02:08:33.302Z,0.00
2022-10-26T02:09:37.005Z,0.00
2022-10-26T02:10:40.693Z,0.00
2022-10-26T02:11:44.386Z,0.00
2022-10-26T02:12:47.969Z,0.00
2022-10-26T02:13:51.382Z,0.00
2022-10-26T02:14:54.846Z,0.00
2022-10-26T02:15:58.441Z,0.00
2022-10-26T02:17:02.026Z,0.00
2022-10-26T02:18:05.609Z,0.00
2022-10-26T02:19:09.215Z,0.00
2022-10-26T02:20:12.911Z,0.00
2022-10-26T02:21:15.966Z,0.00
2022-10-26T02:22:19.570Z,0.00
2022-10-26T02:23:23.069Z,0.00
2022-10-26T02:24:26.558Z,0.00
2022-10-26T02:25:29.843Z,0.00
2022-10-26T02:26:33.741Z,0.00
2022-10-26T02:27:37.538Z,0.00
2022-10-26T02:28:41.255Z,0.00
2022-10-26T02:29:44.915Z,0.50
2022-10-26T02:30:48.586Z,0.57
2022-10-26T02:31:52.718Z,0.43
2022-10-26T02:32:56.410Z,0.50
2022-10-26T02:34:00.212Z,0.50
2022-10-26T02:35:04.421Z,0.14
2022-10-26T02:36:08.410Z,0.00
2022-10-26T02:37:12.209Z,0.00
2022-10-26T02:38:15.841Z,0.00
2022-10-26T02:39:19.404Z,0.14
2022-10-26T02:40:23.180Z,0.00
2022-10-26T02:41:26.779Z,0.00
2022-10-26T02:42:30.692Z,0.00
2022-10-26T02:43:34.494Z,0.00
2022-10-26T02:44:38.373Z,0.00
2022-10-26T02:45:42.378Z,0.00
2022-10-26T02:46:46.086Z,0.00
2022-10-26T02:47:50.086Z,0.00
2022-10-26T02:48:53.895Z,0.00
2022-10-26T02:49:57.564Z,0.00
2022-10-26T02:51:00.889Z,0.43
2022-10-26T02:52:04.753Z,0.00
2022-10-26T02:53:08.340Z,0.00
2022-10-26T02:54:11.933Z,0.14
2022-10-26T02:55:15.206Z,0.57
2022-10-26T02:56:19.030Z,0.00
2022-10-26T02:57:22.504Z,0.00
2022-10-26T02:58:26.093Z,0.00
2022-10-26T02:59:30.094Z,0.00
2022-10-26T03:00:33.793Z,0.00
2022-10-26T03:01:37.661Z,0.00
2022-10-26T03:02:42.440Z,0.00
2022-10-26T03:03:45.938Z,0.00
2022-10-26T03:04:49.581Z,0.00
2022-10-26T03:05:53.256Z,0.00
2022-10-26T03:06:56.769Z,0.00
2022-10-26T03:08:00.260Z,0.00
2022-10-26T03:09:03.933Z,0.00
2022-10-26T03:10:07.537Z,0.00
2022-10-26T03:11:11.000Z,0.00
2022-10-26T03:12:14.195Z,0.00
2022-10-26T03:13:17.357Z,0.00
2022-10-26T03:14:20.990Z,0.00
2022-10-26T03:15:24.468Z,0.00
2022-10-26T03:16:28.066Z,0.00
2022-10-26T03:17:31.961Z,0.37
2022-10-26T03:18:35.111Z,0.57
2022-10-26T03:19:38.669Z,0.00
2022-10-26T03:20:42.026Z,0.00
2022-10-26T03:21:45.502Z,0.00
2022-10-26T03:22:49.307Z,0.00
2022-10-26T03:23:53.098Z,0.00
2022-10-26T03:24:56.918Z,0.00
2022-10-26T03:26:00.424Z,0.00
2022-10-26T03:27:03.977Z,0.00
2022-10-26T03:28:07.668Z,0.00
2022-10-26T03:29:11.271Z,0.00
2022-10-26T03:30:14.595Z,0.00
2022-10-26T03:31:18.142Z,0.00
2022-10-26T03:32:21.725Z,0.00
2022-10-26T03:33:27.139Z,0.00
2022-10-26T03:34:29.846Z,0.00
2022-10-26T03:35:33.326Z,0.00
2022-10-26T03:36:37.025Z,0.00
2022-10-26T03:37:40.515Z,0.00
2022-10-26T03:38:44.302Z,0.00
2022-10-26T03:39:48.001Z,0.00
2022-10-26T03:40:51.786Z,0.00
2022-10-26T03:42:58.173Z,0.00
2022-10-26T03:44:01.748Z,0.00
2022-10-26T03:45:05.165Z,0.00
2022-10-26T03:46:08.502Z,0.00
2022-10-26T03:47:11.892Z,0.00
2022-10-26T03:48:15.402Z,0.00
2022-10-26T03:49:18.761Z,0.00
2022-10-26T03:50:22.174Z,0.00
2022-10-26T03:51:25.772Z,0.00
2022-10-26T03:52:29.229Z,0.00
2022-10-26T03:53:32.941Z,0.00
2022-10-26T03:54:36.211Z,0.00
2022-10-26T03:55:39.738Z,0.00
2022-10-26T03:56:43.114Z,0.00
2022-10-26T03:57:46.495Z,0.00
2022-10-26T03:58:49.992Z,0.00
2022-10-26T03:59:53.366Z,0.14
2022-10-26T04:00:57.486Z,1.00
2022-10-26T04:02:00.674Z,1.14
2022-10-26T04:03:03.941Z,0.00
2022-10-26T04:04:07.566Z,0.67
2022-10-26T04:05:10.994Z,0.00
2022-10-26T04:06:14.710Z,0.00
2022-10-26T04:07:17.997Z,0.00
2022-10-26T04:08:21.582Z,0.00
2022-10-26T04:09:25.377Z,0.00
2022-10-26T04:10:29.391Z,0.00
2022-10-26T04:11:32.763Z,0.00
2022-10-26T04:12:36.258Z,0.00
2022-10-26T04:13:39.742Z,0.00
2022-10-26T04:14:42.906Z,0.43
2022-10-26T04:15:46.313Z,1.00
2022-10-26T04:16:49.788Z,0.57
2022-10-26T04:17:53.280Z,0.00
2022-10-26T04:18:56.660Z,0.00
2022-10-26T04:20:00.281Z,0.00
2022-10-26T04:21:03.965Z,0.00
2022-10-26T04:22:08.063Z,0.43
2022-10-26T04:23:11.622Z,0.50
2022-10-26T04:24:15.248Z,0.00
2022-10-26T04:25:18.847Z,0.00
2022-10-26T04:26:22.439Z,0.00
2022-10-26T04:27:26.744Z,0.00
2022-10-26T04:28:30.465Z,0.00
2022-10-26T04:29:33.921Z,0.43
2022-10-26T04:30:37.622Z,0.57
2022-10-26T04:31:41.078Z,0.00
2022-10-26T04:32:44.705Z,0.00
2022-10-26T04:33:48.397Z,0.00
2022-10-26T04:34:51.878Z,0.00
2022-10-26T04:35:55.162Z,1.00
2022-10-26T04:36:58.555Z,1.14
2022-10-26T04:38:02.358Z,0.00
2022-10-26T04:39:05.843Z,0.00
2022-10-26T04:40:09.226Z,0.00
2022-10-26T04:41:12.841Z,0.00
2022-10-26T04:42:16.078Z,0.00
2022-10-26T04:43:19.386Z,0.00
2022-10-26T04:44:22.873Z,0.00
2022-10-26T04:45:26.770Z,0.00
2022-10-26T04:46:30.465Z,0.00
2022-10-26T04:47:34.266Z,0.00
2022-10-26T04:48:37.636Z,0.00
2022-10-26T04:49:40.832Z,0.86
2022-10-26T04:50:44.218Z,1.00
2022-10-26T04:51:47.604Z,0.00
2022-10-26T04:52:51.371Z,0.00
2022-10-26T04:53:55.166Z,0.00
2022-10-26T04:54:58.479Z,0.00
2022-10-26T04:56:02.032Z,0.00
2022-10-26T04:57:05.356Z,0.00
2022-10-26T04:58:08.945Z,0.00
2022-10-26T04:59:12.639Z,0.00
2022-10-26T05:00:15.853Z,0.00
2022-10-26T05:01:19.617Z,0.00
2022-10-26T05:02:23.354Z,0.00
2022-10-26T05:03:26.913Z,0.00
2022-10-26T05:04:30.396Z,0.43
2022-10-26T05:05:33.881Z,0.57
2022-10-26T05:06:37.301Z,0.00
2022-10-26T05:07:40.662Z,0.00
2022-10-26T05:08:44.146Z,0.00
2022-10-26T05:09:47.840Z,0.00
2022-10-26T05:10:51.430Z,0.00
2022-10-26T05:11:55.129Z,0.14
2022-10-26T05:12:58.512Z,0.57
2022-10-26T05:14:02.315Z,0.00
2022-10-26T05:15:07.845Z,0.00
2022-10-26T05:16:10.204Z,0.00
2022-10-26T05:17:13.639Z,0.00
2022-10-26T05:18:16.982Z,0.00
2022-10-26T05:19:20.674Z,0.00
2022-10-26T05:20:24.262Z,0.00
2022-10-26T05:21:27.685Z,0.00
2022-10-26T05:22:31.333Z,0.00
2022-10-26T05:23:35.040Z,0.00
2022-10-26T05:24:38.295Z,0.29
2022-10-26T05:25:41.915Z,0.00
2022-10-26T05:26:45.717Z,0.00
2022-10-26T05:27:49.306Z,0.00
2022-10-26T05:28:52.788Z,0.00
2022-10-26T05:29:56.112Z,0.00
2022-10-26T05:30:59.363Z,0.00
2022-10-26T05:32:02.953Z,0.00
2022-10-26T05:33:06.544Z,0.00
2022-10-26T05:34:10.142Z,0.00
2022-10-26T05:35:13.530Z,0.00
2022-10-26T05:36:16.970Z,0.00
2022-10-26T05:37:20.280Z,0.00
2022-10-26T05:38:23.711Z,0.00
2022-10-26T05:39:27.368Z,0.00
2022-10-26T05:40:30.886Z,0.00
2022-10-26T05:41:34.457Z,0.00
2022-10-26T05:42:37.731Z,0.00
2022-10-26T05:43:41.431Z,0.00
2022-10-26T05:44:44.821Z,0.00
2022-10-26T05:45:48.423Z,0.00
2022-10-26T05:46:52.119Z,0.00
2022-10-26T05:47:58.578Z,0.00
2022-10-26T05:49:00.442Z,0.00
2022-10-26T05:50:04.007Z,0.00
2022-10-26T05:51:07.594Z,0.00
2022-10-26T05:52:11.093Z,0.00
2022-10-26T05:53:14.719Z,0.00
2022-10-26T05:54:18.167Z,0.57
2022-10-26T05:55:21.665Z,0.00
2022-10-26T05:56:25.254Z,0.00
2022-10-26T05:57:28.837Z,0.00
2022-10-26T05:58:32.645Z,0.43
2022-10-26T05:59:36.349Z,0.50
2022-10-26T06:00:39.814Z,0.00
2022-10-26T06:01:43.880Z,0.00
2022-10-26T06:02:47.924Z,0.00
2022-10-26T06:03:51.714Z,0.00
2022-10-26T06:04:55.715Z,0.00
2022-10-26T06:05:59.932Z,0.37
2022-10-26T06:07:03.823Z,0.50
2022-10-26T06:08:07.416Z,0.00
2022-10-26T06:09:10.699Z,0.00
2022-10-26T06:10:14.595Z,0.00
2022-10-26T06:11:18.091Z,0.00
2022-10-26T06:12:21.812Z,0.00
2022-10-26T06:13:25.577Z,0.00
2022-10-26T06:14:29.156Z,0.00
2022-10-26T06:15:33.077Z,0.00
2022-10-26T06:16:37.570Z,0.00
2022-10-26T06:17:41.171Z,0.00
2022-10-26T06:18:44.758Z,0.00
2022-10-26T06:19:49.073Z,0.43
2022-10-26T06:20:52.666Z,0.50
2022-10-26T06:21:56.262Z,0.43
2022-10-26T06:23:00.179Z,0.00
2022-10-26T06:24:05.177Z,0.00
2022-10-26T06:25:09.076Z,0.00
2022-10-26T06:26:12.465Z,0.00
2022-10-26T06:27:18.701Z,0.00
2022-10-26T06:28:22.330Z,0.00
2022-10-26T06:29:26.010Z,0.00
2022-10-26T06:30:29.598Z,0.50
2022-10-26T06:31:33.702Z,0.00
2022-10-26T06:32:37.500Z,0.00
2022-10-26T06:33:41.391Z,0.00
2022-10-26T06:34:45.088Z,0.00
2022-10-26T06:35:48.211Z,0.00
2022-10-26T06:36:52.176Z,0.00
2022-10-26T06:37:56.193Z,0.00
2022-10-26T06:39:00.995Z,0.00
2022-10-26T06:40:05.306Z,0.00
2022-10-26T06:41:09.925Z,0.00
2022-10-26T06:42:13.815Z,0.00
2022-10-26T06:43:17.509Z,0.50
2022-10-26T06:44:21.405Z,0.50
2022-10-26T06:45:24.890Z,0.00
2022-10-26T06:46:28.796Z,0.00
2022-10-26T06:47:32.680Z,0.00
2022-10-26T06:48:36.272Z,0.00
2022-10-26T06:49:40.282Z,0.00
2022-10-26T06:50:44.076Z,0.00
2022-10-26T06:51:47.468Z,0.57
2022-10-26T06:52:50.851Z,0.00
2022-10-26T06:53:54.450Z,0.00
2022-10-26T06:54:58.340Z,0.00
2022-10-26T06:56:02.135Z,0.00
2022-10-26T06:57:06.270Z,0.00
2022-10-26T06:58:10.557Z,0.00
2022-10-26T06:59:14.954Z,0.00
2022-10-26T07:00:18.893Z,0.00
2022-10-26T07:01:22.517Z,0.00
2022-10-26T07:02:26.610Z,0.00
2022-10-26T07:03:30.449Z,0.00
2022-10-26T07:04:34.250Z,0.00
2022-10-26T07:05:37.941Z,0.00
2022-10-26T07:06:41.429Z,0.00
2022-10-26T07:07:45.842Z,0.00
2022-10-26T07:08:50.274Z,0.00
2022-10-26T07:09:53.970Z,0.00
2022-10-26T07:10:57.738Z,0.00
2022-10-26T07:12:01.437Z,0.00
2022-10-26T07:13:04.721Z,0.00
2022-10-26T07:14:08.515Z,0.00
2022-10-26T07:15:12.516Z,0.00
2022-10-26T07:16:16.873Z,0.00
2022-10-26T07:17:20.407Z,0.00
2022-10-26T07:18:23.903Z,0.00
2022-10-26T07:19:27.394Z,0.00
2022-10-26T07:20:30.785Z,0.00
2022-10-26T07:21:34.777Z,0.00
2022-10-26T07:22:37.938Z,0.00
2022-10-26T07:23:41.449Z,0.00
2022-10-26T07:24:44.816Z,0.00
2022-10-26T07:25:48.941Z,0.00
2022-10-26T07:26:52.531Z,0.00
2022-10-26T07:27:56.437Z,0.00
2022-10-26T07:28:59.722Z,0.57
2022-10-26T07:30:03.210Z,0.00
2022-10-26T07:31:06.396Z,0.00
2022-10-26T07:32:10.084Z,0.00
2022-10-26T07:33:13.581Z,0.00
2022-10-26T07:34:17.055Z,0.43
2022-10-26T07:35:20.860Z,0.14
2022-10-26T07:36:24.555Z,0.00
2022-10-26T07:37:28.350Z,0.00
2022-10-26T07:38:31.708Z,0.00
2022-10-26T07:39:35.122Z,0.00
2022-10-26T07:40:38.828Z,0.00
2022-10-26T07:41:42.614Z,0.50
2022-10-26T07:42:47.736Z,0.25
2022-10-26T07:43:51.329Z,0.37
2022-10-26T07:44:55.000Z,0.00
2022-10-26T07:45:58.608Z,0.43
2022-10-26T07:47:02.313Z,0.57
2022-10-26T07:48:06.412Z,0.00
2022-10-26T07:49:09.906Z,0.00
2022-10-26T07:50:13.494Z,0.00
2022-10-26T07:51:17.209Z,0.00
2022-10-26T07:52:20.779Z,0.00
2022-10-26T07:53:27.906Z,0.00
2022-10-26T07:54:29.190Z,0.00
2022-10-26T07:55:32.478Z,0.86
2022-10-26T07:56:36.170Z,0.57
2022-10-26T07:57:40.077Z,0.00
2022-10-26T07:58:44.063Z,0.00
2022-10-26T07:59:47.757Z,0.00
2022-10-26T08:00:51.310Z,0.00
2022-10-26T08:01:55.082Z,0.00
2022-10-26T08:02:58.840Z,0.43
2022-10-26T08:04:02.445Z,0.86
2022-10-26T08:05:06.124Z,0.86
2022-10-26T08:06:09.824Z,1.37
2022-10-26T08:07:13.415Z,1.57
2022-10-26T08:08:16.897Z,1.00
2022-10-26T08:09:20.694Z,1.00
2022-10-26T08:10:24.266Z,1.00
2022-10-26T08:11:27.572Z,0.43
2022-10-26T08:12:31.065Z,0.00
2022-10-26T08:13:34.548Z,1.00
2022-10-26T08:14:38.554Z,0.57
2022-10-26T08:15:41.932Z,0.29
2022-10-26T08:16:45.531Z,0.00
2022-10-26T08:17:49.454Z,0.14
2022-10-26T08:18:53.432Z,0.50
2022-10-26T08:19:57.220Z,0.50
2022-10-26T08:21:10.088Z,1.00
2022-10-26T08:22:05.789Z,0.62
2022-10-26T08:23:09.658Z,0.75
2022-10-26T08:24:13.234Z,0.37
2022-10-26T08:25:20.409Z,0.00
2022-10-26T08:26:21.856Z,0.00
2022-10-26T08:27:25.231Z,0.00
2022-10-26T08:28:28.929Z,0.00
2022-10-26T08:29:32.623Z,0.43
2022-10-26T08:31:39.598Z,0.57
2022-10-26T08:32:43.594Z,0.75
2022-10-26T08:33:47.091Z,1.00
2022-10-26T08:34:50.571Z,1.00
2022-10-26T08:35:54.710Z,1.14
2022-10-26T08:36:57.984Z,1.57
2022-10-26T08:38:01.560Z,1.00
2022-10-26T08:39:05.655Z,1.00
2022-10-26T08:40:09.349Z,0.75
2022-10-26T08:41:13.458Z,0.71
2022-10-26T08:42:17.047Z,1.00
2022-10-26T08:43:20.746Z,1.00
2022-10-26T08:44:24.438Z,1.00
2022-10-26T08:45:31.755Z,1.00
2022-10-26T08:46:32.898Z,0.75
2022-10-26T08:47:36.742Z,0.50
2022-10-26T08:48:40.755Z,0.86
2022-10-26T08:49:44.445Z,1.00
2022-10-26T08:50:48.217Z,1.25
2022-10-26T08:51:51.832Z,2.00
2022-10-26T08:52:55.724Z,1.50
2022-10-26T08:53:59.314Z,1.14
2022-10-26T08:55:03.122Z,0.86
2022-10-26T08:56:07.114Z,1.00
2022-10-26T08:57:11.242Z,2.00
2022-10-26T08:58:14.923Z,1.62
2022-10-26T08:59:18.510Z,1.00
2022-10-26T09:00:21.889Z,0.75
2022-10-26T09:01:25.487Z,1.00
2022-10-26T09:02:29.273Z,1.00
2022-10-26T09:03:33.752Z,0.57
2022-10-26T09:04:37.387Z,1.50
2022-10-26T09:05:40.779Z,1.57
2022-10-26T09:06:43.964Z,1.00
2022-10-26T09:07:47.730Z,1.14
2022-10-26T09:08:51.357Z,1.75
2022-10-26T09:09:54.625Z,1.57
2022-10-26T09:10:58.105Z,1.14
2022-10-26T09:12:01.603Z,1.00
2022-10-26T09:13:05.094Z,1.00
2022-10-26T09:14:08.686Z,1.00
2022-10-26T09:15:12.168Z,1.00
2022-10-26T09:16:15.873Z,1.43
2022-10-26T09:17:19.356Z,0.50
2022-10-26T09:18:22.844Z,0.00
2022-10-26T09:19:26.225Z,0.86
2022-10-26T09:20:29.614Z,1.00
2022-10-26T09:21:33.099Z,0.86
2022-10-26T09:22:36.496Z,1.00
2022-10-26T09:23:40.195Z,1.00
2022-10-26T09:24:44.089Z,1.00
2022-10-26T09:25:47.691Z,0.00
2022-10-26T09:26:51.166Z,0.00
2022-10-26T09:27:54.752Z,0.00
2022-10-26T09:28:58.757Z,0.50
2022-10-26T09:30:02.256Z,0.71
2022-10-26T09:31:06.144Z,0.57
2022-10-26T09:32:10.140Z,0.50
2022-10-26T09:33:13.940Z,0.71
2022-10-26T09:34:17.545Z,0.00
2022-10-26T09:35:23.240Z,0.43
2022-10-26T09:36:26.565Z,0.50
2022-10-26T09:37:30.380Z,0.43
2022-10-26T09:38:33.945Z,1.00
2022-10-26T09:39:37.430Z,0.57
2022-10-26T09:40:41.131Z,0.00
2022-10-26T09:41:44.602Z,0.00
2022-10-26T09:42:47.901Z,0.00
2022-10-26T09:43:51.294Z,0.00
2022-10-26T09:44:54.741Z,0.00
2022-10-26T09:45:58.311Z,0.00
2022-10-26T09:47:01.771Z,0.00
2022-10-26T09:48:07.323Z,0.00
2022-10-26T09:49:10.986Z,0.00
2022-10-26T09:50:14.790Z,0.00
2022-10-26T09:51:18.121Z,0.00
2022-10-26T09:52:21.560Z,0.43
2022-10-26T09:53:24.839Z,0.86
2022-10-26T09:54:28.224Z,0.57
2022-10-26T09:55:31.613Z,0.43
2022-10-26T09:56:35.002Z,0.43
2022-10-26T09:57:38.334Z,0.29
2022-10-26T09:58:41.779Z,1.14
2022-10-26T09:59:44.971Z,1.14
2022-10-26T10:00:48.552Z,1.33
2022-10-26T10:01:52.403Z,1.14
2022-10-26T10:02:55.784Z,0.75
2022-10-26T10:03:59.424Z,1.00
2022-10-26T10:05:03.324Z,1.00
2022-10-26T10:06:06.615Z,1.00
2022-10-26T10:07:10.300Z,1.29
2022-10-26T10:08:14.110Z,0.88
2022-10-26T10:09:17.581Z,0.00
2022-10-26T10:10:21.177Z,0.57
2022-10-26T10:11:24.969Z,1.00
2022-10-26T10:12:28.360Z,1.12
2022-10-26T10:13:31.873Z,1.14
2022-10-26T10:14:38.892Z,1.00
2022-10-26T10:15:40.479Z,0.00
2022-10-26T10:16:44.082Z,0.75
2022-10-26T10:17:50.815Z,0.57
2022-10-26T10:18:52.062Z,0.25
2022-10-26T10:19:55.852Z,0.00
2022-10-26T10:20:59.777Z,0.50
2022-10-26T10:22:03.242Z,1.00
2022-10-26T10:23:06.845Z,0.86
2022-10-26T10:24:10.429Z,0.43
2022-10-26T10:25:13.812Z,1.00
2022-10-26T10:26:17.100Z,0.86
2022-10-26T10:27:20.761Z,0.43
2022-10-26T10:28:24.242Z,1.00
2022-10-26T10:29:27.601Z,0.50
2022-10-26T10:30:30.847Z,0.00
2022-10-26T10:31:34.440Z,0.00
2022-10-26T10:32:39.290Z,0.00
2022-10-26T10:33:42.845Z,1.00
2022-10-26T10:34:46.447Z,0.43
2022-10-26T10:35:50.359Z,0.14
2022-10-26T10:36:54.652Z,0.50
2022-10-26T10:37:58.263Z,1.00
2022-10-26T10:39:01.742Z,1.00
2022-10-26T10:40:05.123Z,0.13
2022-10-26T10:41:08.813Z,0.00
2022-10-26T10:42:12.607Z,0.00
2022-10-26T10:43:16.298Z,0.00
2022-10-26T10:44:19.786Z,0.00
2022-10-26T10:45:23.384Z,0.00
2022-10-26T10:46:26.429Z,0.00
2022-10-26T10:47:29.788Z,0.43
2022-10-26T10:48:34.658Z,0.57
2022-10-26T10:49:37.638Z,0.00
2022-10-26T10:50:41.209Z,0.00
2022-10-26T10:51:44.427Z,0.43
2022-10-26T10:52:48.154Z,0.57
2022-10-26T10:53:51.493Z,0.00
2022-10-26T10:54:54.679Z,0.00
2022-10-26T10:55:58.035Z,0.00
2022-10-26T10:57:01.762Z,0.00
2022-10-26T10:58:05.346Z,0.00
2022-10-26T10:59:08.719Z,0.00
2022-10-26T11:00:12.335Z,0.57
2022-10-26T11:01:19.228Z,0.00
2022-10-26T11:02:22.905Z,0.00
2022-10-26T11:03:26.276Z,0.00
2022-10-26T11:04:30.281Z,0.00
2022-10-26T11:05:33.569Z,0.00
2022-10-26T11:06:36.847Z,0.00
2022-10-26T11:07:40.547Z,0.00
2022-10-26T11:08:44.346Z,0.00
2022-10-26T11:09:48.290Z,0.00
2022-10-26T11:10:52.032Z,0.00
2022-10-26T11:11:55.926Z,0.00
2022-10-26T11:12:59.320Z,0.00
2022-10-26T11:14:03.422Z,0.00
2022-10-26T11:15:07.046Z,0.00
2022-10-26T11:16:11.219Z,0.00
2022-10-26T11:17:15.009Z,0.00
2022-10-26T11:18:18.711Z,0.00
2022-10-26T11:19:22.307Z,0.00
2022-10-26T11:20:26.222Z,0.00
2022-10-26T11:21:29.789Z,0.00
2022-10-26T11:22:33.357Z,0.00
2022-10-26T11:23:36.969Z,0.00
2022-10-26T11:24:40.670Z,0.29
2022-10-26T11:25:44.461Z,0.37
2022-10-26T11:26:48.075Z,0.00
2022-10-26T11:27:52.068Z,0.00
2022-10-26T11:28:55.750Z,0.00
2022-10-26T11:29:59.333Z,0.00
2022-10-26T11:31:02.806Z,0.00
2022-10-26T11:32:07.337Z,0.00
2022-10-26T11:33:10.935Z,0.00
2022-10-26T11:34:14.468Z,0.00
2022-10-26T11:35:18.101Z,0.00
2022-10-26T11:36:22.247Z,0.29
2022-10-26T11:37:25.364Z,0.00
2022-10-26T11:38:39.176Z,0.00
2022-10-26T11:39:33.340Z,0.00
2022-10-26T11:40:36.689Z,0.00
2022-10-26T11:41:40.580Z,0.00
2022-10-26T11:42:44.283Z,0.00
2022-10-26T11:43:48.075Z,0.00
2022-10-26T11:44:53.036Z,0.00
2022-10-26T11:45:56.017Z,0.00
2022-10-26T11:46:59.465Z,0.00
2022-10-26T11:48:02.542Z,0.00
2022-10-26T11:49:05.932Z,0.00
2022-10-26T11:50:11.196Z,0.00
2022-10-26T11:51:14.135Z,0.00
2022-10-26T11:52:17.638Z,0.00
2022-10-26T11:53:21.220Z,0.00
2022-10-26T11:54:25.023Z,0.00
2022-10-26T11:55:28.293Z,0.00
2022-10-26T11:56:31.685Z,0.00
2022-10-26T11:57:35.168Z,0.00
2022-10-26T11:58:38.560Z,0.00
2022-10-26T11:59:41.748Z,0.00
2022-10-26T12:00:44.925Z,0.00
2022-10-26T12:01:48.474Z,0.00
2022-10-26T12:02:51.709Z,0.00
2022-10-26T12:03:55.181Z,0.00
2022-10-26T12:04:58.470Z,0.00
2022-10-26T12:06:01.749Z,0.00
2022-10-26T12:07:05.676Z,0.00
2022-10-26T12:08:09.138Z,0.00
2022-10-26T12:09:12.518Z,0.00
2022-10-26T12:10:18.331Z,0.00
2022-10-26T12:11:20.319Z,0.00
2022-10-26T12:12:23.603Z,0.00
2022-10-26T12:13:27.101Z,0.00
2022-10-26T12:14:30.294Z,0.00
2022-10-26T12:15:40.348Z,0.00
2022-10-26T12:16:37.970Z,0.25
2022-10-26T12:17:41.174Z,0.00
2022-10-26T12:18:58.193Z,0.00
2022-10-26T12:19:49.779Z,0.00
2022-10-26T12:20:53.411Z,0.50
2022-10-26T12:21:56.857Z,0.50
2022-10-26T12:23:00.319Z,0.00
2022-10-26T12:24:03.931Z,0.00
2022-10-26T12:25:11.156Z,0.00
2022-10-26T12:26:12.035Z,0.50
2022-10-26T12:27:15.419Z,1.00
2022-10-26T12:28:18.917Z,0.14
2022-10-26T12:29:22.502Z,0.00
2022-10-26T12:30:26.096Z,0.00
2022-10-26T12:32:32.047Z,0.00
2022-10-26T12:33:35.226Z,0.00
2022-10-26T12:34:38.818Z,0.00
2022-10-26T12:35:42.311Z,0.00
2022-10-26T12:36:45.699Z,0.00
2022-10-26T12:37:49.394Z,0.00
2022-10-26T12:38:53.093Z,0.00
2022-10-26T12:39:56.682Z,0.00
2022-10-26T12:40:59.861Z,0.00
2022-10-26T12:42:03.137Z,0.00
2022-10-26T12:43:06.429Z,0.00
2022-10-26T12:44:10.063Z,0.17
2022-10-26T12:45:13.920Z,0.43
2022-10-26T12:46:17.204Z,0.50
2022-10-26T12:47:20.488Z,0.00
2022-10-26T12:48:27.946Z,0.00
2022-10-26T12:49:27.992Z,0.00
2022-10-26T12:50:31.569Z,0.00
2022-10-26T12:51:39.565Z,0.00
2022-10-26T12:52:39.162Z,0.50
2022-10-26T12:53:45.869Z,0.57
2022-10-26T12:54:47.333Z,0.00
2022-10-26T12:55:51.388Z,0.00
2022-10-26T12:56:54.566Z,0.00
2022-10-26T12:57:57.854Z,0.00
2022-10-26T12:59:04.507Z,0.57
2022-10-26T13:00:06.476Z,0.13
2022-10-26T13:01:10.301Z,0.00
2022-10-26T13:02:13.651Z,0.00
2022-10-26T13:03:17.022Z,0.00
2022-10-26T13:04:20.329Z,0.00
2022-10-26T13:05:24.116Z,0.00
2022-10-26T13:06:27.692Z,0.50
2022-10-26T13:07:30.910Z,0.14
2022-10-26T13:08:34.262Z,0.00
2022-10-26T13:09:37.849Z,0.00
2022-10-26T13:10:41.238Z,0.00
2022-10-26T13:11:44.892Z,0.00
2022-10-26T13:12:48.668Z,0.00
2022-10-26T13:13:52.519Z,0.00
2022-10-26T13:14:56.130Z,0.00
2022-10-26T13:15:59.916Z,0.00
2022-10-26T13:17:03.631Z,0.00
2022-10-26T13:18:06.995Z,0.00
2022-10-26T13:19:10.791Z,0.00
2022-10-26T13:20:14.374Z,0.43
2022-10-26T13:21:17.870Z,0.57
2022-10-26T13:22:21.777Z,0.00
2022-10-26T13:23:25.160Z,0.00
2022-10-26T13:24:28.879Z,0.00
2022-10-26T13:25:32.338Z,0.00
2022-10-26T13:26:35.651Z,0.00
2022-10-26T13:27:39.013Z,0.00
2022-10-26T13:28:42.611Z,0.00
2022-10-26T13:29:46.116Z,0.00
2022-10-26T13:30:49.687Z,0.43
2022-10-26T13:31:53.169Z,0.25
2022-10-26T13:32:57.370Z,0.00
2022-10-26T13:34:00.922Z,0.00
2022-10-26T13:35:04.350Z,0.00
2022-10-26T13:36:07.840Z,0.00
2022-10-26T13:37:11.739Z,0.00
2022-10-26T13:38:15.459Z,0.00
2022-10-26T13:39:19.029Z,0.00
2022-10-26T13:40:22.409Z,0.00
2022-10-26T13:41:26.212Z,0.00
2022-10-26T13:42:29.730Z,0.00
2022-10-26T13:43:33.001Z,0.00
2022-10-26T13:44:36.170Z,0.17
2022-10-26T13:45:39.653Z,0.00
2022-10-26T13:46:43.250Z,0.00
2022-10-26T13:47:46.827Z,0.00
2022-10-26T13:48:50.629Z,0.00
2022-10-26T13:49:54.059Z,0.00
2022-10-26T13:52:01.919Z,0.00
2022-10-26T13:53:05.615Z,0.00
2022-10-26T13:54:09.622Z,0.00
2022-10-26T13:55:13.007Z,0.00
2022-10-26T13:56:16.799Z,0.00
2022-10-26T13:57:20.488Z,0.00
2022-10-26T13:58:23.980Z,0.00
2022-10-26T13:59:27.231Z,0.00
2022-10-26T14:00:30.797Z,0.00
2022-10-26T14:01:34.127Z,0.00
2022-10-26T14:02:37.520Z,0.00
2022-10-26T14:03:41.138Z,0.00
2022-10-26T14:04:44.948Z,0.00
2022-10-26T14:05:48.504Z,0.00
2022-10-26T14:06:51.903Z,0.00
2022-10-26T14:07:56.964Z,0.00
2022-10-26T14:08:59.907Z,0.00
2022-10-26T14:10:03.789Z,0.00
2022-10-26T14:11:07.172Z,0.00
2022-10-26T14:12:10.585Z,0.00